sensor_id;sensor_type;location;lat;lon;timestamp;pressure;altitude;pressure_sealevel;temperature;humidity
6694;BME280;3384;42.628;23.380;2022-09-03T00:00:18;94206.44;;;17.29;100.00
6694;BME280;3384;42.628;23.380;2022-09-03T00:02:52;94193.41;;;17.07;100.00
6694;BME280;3384;42.628;23.380;2022-09-03T00:05:31;94204.66;;;17.21;100.00
6694;BME280;3384;42.628;23.380;2022-09-03T00:08:04;94199.59;;;17.20;100.00
6694;BME280;3384;42.628;23.380;2022-09-03T00:10:40;94201.34;;;17.28;100.00
6694;BME280;3384;42.628;23.380;2022-09-03T00:13:13;94197.47;;;17.13;100.00
6694;BME280;3384;42.628;23.380;2022-09-03T00:15:41;94208.53;;;17.08;100.00
6694;BME280;3384;42.628;23.380;2022-09-03T00:18:12;94210.19;;;17.25;100.00
6694;BME280;3384;42.628;23.380;2022-09-03T00:20:46;94200.09;;;17.49;100.00
6694;BME280;3384;42.628;23.380;2022-09-03T00:23:19;94205.75;;;17.32;100.00
6694;BME280;3384;42.628;23.380;2022-09-03T00:25:51;94206.94;;;17.19;100.00
6694;BME280;3384;42.628;23.380;2022-09-03T00:28:22;94208.56;;;17.48;100.00
6694;BME280;3384;42.628;23.380;2022-09-03T00:31:03;94197.88;;;17.27;100.00
6694;BME280;3384;42.628;23.380;2022-09-03T00:33:31;94201.47;;;17.43;100.00
6694;BME280;3384;42.628;23.380;2022-09-03T00:36:07;94201.34;;;17.28;100.00
6694;BME280;3384;42.628;23.380;2022-09-03T00:38:37;94203.94;;;17.48;100.00
6694;BME280;3384;42.628;23.380;2022-09-03T00:41:07;94199.78;;;17.39;100.00
6694;BME280;3384;42.628;23.380;2022-09-03T00:43:51;94200.06;;;17.61;100.00
6694;BME280;3384;42.628;23.380;2022-09-03T00:46:28;94198.63;;;17.40;100.00
6694;BME280;3384;42.628;23.380;2022-09-03T00:49:21;94192.22;;;17.32;100.00
6694;BME280;3384;42.628;23.380;2022-09-03T00:51:59;94197.72;;;17.48;100.00
6694;BME280;3384;42.628;23.380;2022-09-03T00:54:38;94202.63;;;17.30;100.00
6694;BME280;3384;42.628;23.380;2022-09-03T00:57:18;94205.34;;;17.18;100.00
6694;BME280;3384;42.628;23.380;2022-09-03T00:59:54;94201.47;;;17.31;100.00
6694;BME280;3384;42.628;23.380;2022-09-03T01:02:28;94199.31;;;17.37;100.00
6694;BME280;3384;42.628;23.380;2022-09-03T01:05:01;94207.78;;;17.47;100.00
6694;BME280;3384;42.628;23.380;2022-09-03T01:07:39;94189.50;;;17.44;100.00
6694;BME280;3384;42.628;23.380;2022-09-03T01:10:17;94192.22;;;17.32;100.00
6694;BME280;3384;42.628;23.380;2022-09-03T01:12:55;94198.31;;;17.29;100.00
6694;BME280;3384;42.628;23.380;2022-09-03T01:15:29;94196.94;;;17.35;100.00
6694;BME280;3384;42.628;23.380;2022-09-03T01:18:09;94186.56;;;17.37;100.00
6694;BME280;3384;42.628;23.380;2022-09-03T01:20:53;94188.31;;;17.18;100.00
6694;BME280;3384;42.628;23.380;2022-09-03T01:26:34;94190.84;;;16.99;100.00
6694;BME280;3384;42.628;23.380;2022-09-03T01:29:16;94199.25;;;17.21;100.00
6694;BME280;3384;42.628;23.380;2022-09-03T01:31:52;94198.09;;;17.34;100.00
6694;BME280;3384;42.628;23.380;2022-09-03T01:34:30;94206.81;;;17.16;100.00
6694;BME280;3384;42.628;23.380;2022-09-03T01:37:07;94215.06;;;17.07;100.00
6694;BME280;3384;42.628;23.380;2022-09-03T01:39:44;94217.38;;;16.81;100.00
6694;BME280;3384;42.628;23.380;2022-09-03T01:42:23;94240.72;;;16.98;100.00
6694;BME280;3384;42.628;23.380;2022-09-03T01:45:04;94219.81;;;16.98;100.00
6694;BME280;3384;42.628;23.380;2022-09-03T01:47:43;94221.84;;;17.01;100.00
6694;BME280;3384;42.628;23.380;2022-09-03T01:50:22;94220.44;;;16.80;100.00
6694;BME280;3384;42.628;23.380;2022-09-03T01:53:10;94232.13;;;16.96;100.00
6694;BME280;3384;42.628;23.380;2022-09-03T01:55:45;94206.78;;;16.88;100.00
6694;BME280;3384;42.628;23.380;2022-09-03T01:58:27;94222.19;;;17.00;100.00
6694;BME280;3384;42.628;23.380;2022-09-03T02:01:02;94226.16;;;17.02;100.00
6694;BME280;3384;42.628;23.380;2022-09-03T02:03:37;94211.25;;;16.96;100.00
6694;BME280;3384;42.628;23.380;2022-09-03T02:06:05;94204.03;;;17.00;100.00
6694;BME280;3384;42.628;23.380;2022-09-03T02:08:33;94202.34;;;16.96;100.00
6694;BME280;3384;42.628;23.380;2022-09-03T02:11:00;94211.03;;;16.89;100.00
6694;BME280;3384;42.628;23.380;2022-09-03T02:13:30;94207.06;;;17.11;100.00
6694;BME280;3384;42.628;23.380;2022-09-03T02:16:05;94210.34;;;17.04;100.00
6694;BME280;3384;42.628;23.380;2022-09-03T02:18:37;94223.41;;;17.26;100.00
6694;BME280;3384;42.628;23.380;2022-09-03T02:21:07;94224.75;;;17.20;100.00
6694;BME280;3384;42.628;23.380;2022-09-03T02:23:38;94222.28;;;17.15;100.00
6694;BME280;3384;42.628;23.380;2022-09-03T02:26:05;94232.56;;;17.10;100.00
6694;BME280;3384;42.628;23.380;2022-09-03T02:28:34;94229.41;;;17.08;100.00
6694;BME280;3384;42.628;23.380;2022-09-03T02:31:02;94232.28;;;17.27;100.00
6694;BME280;3384;42.628;23.380;2022-09-03T02:33:29;94227.50;;;16.96;100.00
6694;BME280;3384;42.628;23.380;2022-09-03T02:35:56;94221.28;;;17.08;100.00
6694;BME280;3384;42.628;23.380;2022-09-03T02:38:25;94218.81;;;17.03;100.00
6694;BME280;3384;42.628;23.380;2022-09-03T02:40:53;94235.13;;;17.30;100.00
6694;BME280;3384;42.628;23.380;2022-09-03T02:43:24;94230.44;;;16.79;100.00
6694;BME280;3384;42.628;23.380;2022-09-03T02:45:56;94232.00;;;17.16;100.00
6694;BME280;3384;42.628;23.380;2022-09-03T02:48:26;94232.88;;;17.20;100.00
6694;BME280;3384;42.628;23.380;2022-09-03T02:50:53;94231.16;;;17.28;100.00
6694;BME280;3384;42.628;23.380;2022-09-03T02:53:20;94228.66;;;16.83;100.00
6694;BME280;3384;42.628;23.380;2022-09-03T02:55:47;94233.00;;;17.00;100.00
6694;BME280;3384;42.628;23.380;2022-09-03T02:58:14;94239.78;;;17.18;100.00
6694;BME280;3384;42.628;23.380;2022-09-03T03:00:41;94251.50;;;17.10;100.00
6694;BME280;3384;42.628;23.380;2022-09-03T03:03:08;94235.72;;;17.12;100.00
6694;BME280;3384;42.628;23.380;2022-09-03T03:05:42;94246.78;;;17.19;100.00
6694;BME280;3384;42.628;23.380;2022-09-03T03:08:09;94234.91;;;17.23;100.00
6694;BME280;3384;42.628;23.380;2022-09-03T03:10:36;94243.84;;;17.12;100.00
6694;BME280;3384;42.628;23.380;2022-09-03T03:13:03;94246.09;;;17.10;100.00
6694;BME280;3384;42.628;23.380;2022-09-03T03:15:30;94237.88;;;16.94;100.00
6694;BME280;3384;42.628;23.380;2022-09-03T03:17:57;94231.91;;;17.01;100.00
6694;BME280;3384;42.628;23.380;2022-09-03T03:20:24;94233.44;;;17.14;100.00
6694;BME280;3384;42.628;23.380;2022-09-03T03:22:52;94239.34;;;17.04;100.00
6694;BME280;3384;42.628;23.380;2022-09-03T03:25:19;94233.44;;;17.26;100.00
6694;BME280;3384;42.628;23.380;2022-09-03T03:27:46;94231.06;;;17.24;100.00
6694;BME280;3384;42.628;23.380;2022-09-03T03:30:13;94220.22;;;17.24;100.00
6694;BME280;3384;42.628;23.380;2022-09-03T03:32:40;94228.53;;;17.04;100.00
6694;BME280;3384;42.628;23.380;2022-09-03T03:35:07;94231.88;;;17.13;100.00
6694;BME280;3384;42.628;23.380;2022-09-03T03:37:36;94237.19;;;16.97;100.00
6694;BME280;3384;42.628;23.380;2022-09-03T03:40:05;94237.19;;;16.97;100.00
6694;BME280;3384;42.628;23.380;2022-09-03T03:42:32;94237.78;;;16.79;100.00
6694;BME280;3384;42.628;23.380;2022-09-03T03:45:00;94234.50;;;16.73;100.00
6694;BME280;3384;42.628;23.380;2022-09-03T03:47:27;94239.81;;;16.82;100.00
6694;BME280;3384;42.628;23.380;2022-09-03T03:49:55;94249.16;;;16.60;100.00
6694;BME280;3384;42.628;23.380;2022-09-03T03:52:22;94239.72;;;16.54;100.00
6694;BME280;3384;42.628;23.380;2022-09-03T03:54:49;94234.84;;;16.72;100.00
6694;BME280;3384;42.628;23.380;2022-09-03T03:57:18;94238.69;;;16.95;100.00
6694;BME280;3384;42.628;23.380;2022-09-03T03:59:45;94229.63;;;17.03;100.00
6694;BME280;3384;42.628;23.380;2022-09-03T04:02:13;94243.06;;;16.99;100.00
6694;BME280;3384;42.628;23.380;2022-09-03T04:04:41;94245.66;;;16.96;100.00
6694;BME280;3384;42.628;23.380;2022-09-03T04:07:07;94246.69;;;16.79;100.00
6694;BME280;3384;42.628;23.380;2022-09-03T04:09:34;94244.97;;;16.99;100.00
6694;BME280;3384;42.628;23.380;2022-09-03T04:12:02;94242.19;;;16.83;100.00
6694;BME280;3384;42.628;23.380;2022-09-03T04:14:31;94242.84;;;16.92;100.00
6694;BME280;3384;42.628;23.380;2022-09-03T04:16:58;94242.75;;;16.77;100.00
6694;BME280;3384;42.628;23.380;2022-09-03T04:19:25;94238.81;;;16.74;100.00
6694;BME280;3384;42.628;23.380;2022-09-03T04:21:53;94244.31;;;16.78;100.00
6694;BME280;3384;42.628;23.380;2022-09-03T04:24:20;94246.34;;;16.93;100.00
6694;BME280;3384;42.628;23.380;2022-09-03T04:26:47;94250.06;;;16.76;100.00
6694;BME280;3384;42.628;23.380;2022-09-03T04:29:16;94245.56;;;16.80;100.00
6694;BME280;3384;42.628;23.380;2022-09-03T04:31:44;94249.38;;;16.91;100.00
6694;BME280;3384;42.628;23.380;2022-09-03T04:34:25;94250.28;;;17.07;100.00
6694;BME280;3384;42.628;23.380;2022-09-03T04:36:52;94253.22;;;16.90;100.00
6694;BME280;3384;42.628;23.380;2022-09-03T04:39:18;94258.19;;;16.76;100.00
6694;BME280;3384;42.628;23.380;2022-09-03T04:41:45;94268.56;;;16.86;100.00
6694;BME280;3384;42.628;23.380;2022-09-03T04:44:12;94269.47;;;16.90;100.00
6694;BME280;3384;42.628;23.380;2022-09-03T04:46:39;94273.66;;;16.88;100.00
6694;BME280;3384;42.628;23.380;2022-09-03T04:49:07;94272.97;;;16.91;100.00
6694;BME280;3384;42.628;23.380;2022-09-03T04:51:35;94273.53;;;16.84;100.00
6694;BME280;3384;42.628;23.380;2022-09-03T04:54:03;94284.94;;;17.02;100.00
6694;BME280;3384;42.628;23.380;2022-09-03T04:56:31;94281.19;;;17.18;100.00
6694;BME280;3384;42.628;23.380;2022-09-03T04:59:00;94287.66;;;16.90;100.00
6694;BME280;3384;42.628;23.380;2022-09-03T05:01:29;94287.38;;;17.07;100.00
6694;BME280;3384;42.628;23.380;2022-09-03T05:03:57;94291.38;;;16.85;100.00
6694;BME280;3384;42.628;23.380;2022-09-03T05:06:27;94295.19;;;16.84;100.00
6694;BME280;3384;42.628;23.380;2022-09-03T05:08:54;94299.16;;;17.11;100.00
6694;BME280;3384;42.628;23.380;2022-09-03T05:11:23;94302.19;;;16.85;100.00
6694;BME280;3384;42.628;23.380;2022-09-03T05:13:51;94299.13;;;17.23;100.00
6694;BME280;3384;42.628;23.380;2022-09-03T05:16:19;94308.16;;;16.79;100.00
6694;BME280;3384;42.628;23.380;2022-09-03T05:18:47;94297.00;;;17.04;100.00
6694;BME280;3384;42.628;23.380;2022-09-03T05:21:17;94285.03;;;17.05;100.00
6694;BME280;3384;42.628;23.380;2022-09-03T05:23:47;94297.44;;;17.06;100.00
6694;BME280;3384;42.628;23.380;2022-09-03T05:26:16;94293.59;;;17.07;100.00
6694;BME280;3384;42.628;23.380;2022-09-03T05:28:44;94296.09;;;17.12;100.00
6694;BME280;3384;42.628;23.380;2022-09-03T05:31:12;94302.06;;;17.06;100.00
6694;BME280;3384;42.628;23.380;2022-09-03T05:33:41;94297.69;;;16.89;100.00
6694;BME280;3384;42.628;23.380;2022-09-03T05:36:10;94300.13;;;17.18;100.00
6694;BME280;3384;42.628;23.380;2022-09-03T05:38:37;94300.47;;;17.17;100.00
6694;BME280;3384;42.628;23.380;2022-09-03T05:41:07;94305.56;;;17.30;100.00
6694;BME280;3384;42.628;23.380;2022-09-03T05:43:35;94318.22;;;16.78;100.00
6694;BME280;3384;42.628;23.380;2022-09-03T05:46:04;94320.34;;;16.85;100.00
6694;BME280;3384;42.628;23.380;2022-09-03T05:48:33;94312.22;;;17.09;100.00
6694;BME280;3384;42.628;23.380;2022-09-03T05:51:01;94315.06;;;17.12;100.00
6694;BME280;3384;42.628;23.380;2022-09-03T05:53:28;94327.00;;;17.23;100.00
6694;BME280;3384;42.628;23.380;2022-09-03T05:55:55;94335.47;;;17.10;100.00
6694;BME280;3384;42.628;23.380;2022-09-03T05:58:24;94318.56;;;17.25;100.00
6694;BME280;3384;42.628;23.380;2022-09-03T06:00:51;94334.59;;;17.18;100.00
6694;BME280;3384;42.628;23.380;2022-09-03T06:03:18;94320.94;;;17.02;100.00
6694;BME280;3384;42.628;23.380;2022-09-03T06:05:49;94324.41;;;17.15;100.00
6694;BME280;3384;42.628;23.380;2022-09-03T06:08:16;94343.03;;;17.28;100.00
6694;BME280;3384;42.628;23.380;2022-09-03T06:10:43;94328.72;;;17.04;100.00
6694;BME280;3384;42.628;23.380;2022-09-03T06:13:10;94330.16;;;17.25;100.00
6694;BME280;3384;42.628;23.380;2022-09-03T06:15:39;94343.25;;;17.11;100.00
6694;BME280;3384;42.628;23.380;2022-09-03T06:18:05;94340.53;;;17.11;100.00
6694;BME280;3384;42.628;23.380;2022-09-03T06:20:32;94336.47;;;16.93;100.00
6694;BME280;3384;42.628;23.380;2022-09-03T06:22:59;94316.63;;;17.13;100.00
6694;BME280;3384;42.628;23.380;2022-09-03T06:25:26;94322.72;;;17.10;100.00
6694;BME280;3384;42.628;23.380;2022-09-03T06:27:53;94327.44;;;17.25;100.00
6694;BME280;3384;42.628;23.380;2022-09-03T06:30:20;94335.78;;;17.32;100.00
6694;BME280;3384;42.628;23.380;2022-09-03T06:32:49;94339.53;;;17.04;100.00
6694;BME280;3384;42.628;23.380;2022-09-03T06:35:17;94340.41;;;16.96;100.00
6694;BME280;3384;42.628;23.380;2022-09-03T06:37:44;94346.75;;;17.36;100.00
6694;BME280;3384;42.628;23.380;2022-09-03T06:40:11;94336.16;;;17.43;100.00
6694;BME280;3384;42.628;23.380;2022-09-03T06:42:38;94336.16;;;17.19;100.00
6694;BME280;3384;42.628;23.380;2022-09-03T06:45:07;94346.41;;;17.49;100.00
6694;BME280;3384;42.628;23.380;2022-09-03T06:47:34;94339.19;;;17.41;100.00
6694;BME280;3384;42.628;23.380;2022-09-03T06:50:05;94340.44;;;17.44;100.00
6694;BME280;3384;42.628;23.380;2022-09-03T06:52:34;94337.69;;;17.68;100.00
6694;BME280;3384;42.628;23.380;2022-09-03T06:55:01;94346.16;;;17.66;100.00
6694;BME280;3384;42.628;23.380;2022-09-03T06:57:40;94349.34;;;17.68;100.00
6694;BME280;3384;42.628;23.380;2022-09-03T07:00:08;94338.16;;;17.34;100.00
6694;BME280;3384;42.628;23.380;2022-09-03T07:02:36;94350.78;;;17.66;100.00
6694;BME280;3384;42.628;23.380;2022-09-03T07:05:08;94350.78;;;17.66;100.00
6694;BME280;3384;42.628;23.380;2022-09-03T07:07:34;94344.47;;;17.74;100.00
6694;BME280;3384;42.628;23.380;2022-09-03T07:10:02;94352.91;;;17.84;100.00
6694;BME280;3384;42.628;23.380;2022-09-03T07:12:30;94349.59;;;17.51;100.00
6694;BME280;3384;42.628;23.380;2022-09-03T07:15:02;94351.19;;;17.92;100.00
6694;BME280;3384;42.628;23.380;2022-09-03T07:17:30;94354.06;;;17.71;100.00
6694;BME280;3384;42.628;23.380;2022-09-03T07:19:57;94354.22;;;17.63;100.00
6694;BME280;3384;42.628;23.380;2022-09-03T07:22:25;94356.28;;;17.93;100.00
6694;BME280;3384;42.628;23.380;2022-09-03T07:24:52;94360.06;;;17.77;100.00
6694;BME280;3384;42.628;23.380;2022-09-03T07:27:18;94355.53;;;18.08;100.00
6694;BME280;3384;42.628;23.380;2022-09-03T07:29:45;94373.44;;;17.97;100.00
6694;BME280;3384;42.628;23.380;2022-09-03T07:32:12;94378.25;;;18.04;100.00
6694;BME280;3384;42.628;23.380;2022-09-03T07:34:39;94368.38;;;18.23;100.00
6694;BME280;3384;42.628;23.380;2022-09-03T07:37:06;94368.75;;;18.49;100.00
6694;BME280;3384;42.628;23.380;2022-09-03T07:39:35;94370.84;;;18.01;100.00
6694;BME280;3384;42.628;23.380;2022-09-03T07:42:02;94371.94;;;18.39;100.00
6694;BME280;3384;42.628;23.380;2022-09-03T07:44:29;94373.66;;;18.59;100.00
6694;BME280;3384;42.628;23.380;2022-09-03T07:46:55;94376.53;;;18.23;100.00
6694;BME280;3384;42.628;23.380;2022-09-03T07:49:22;94374.00;;;18.30;100.00
6694;BME280;3384;42.628;23.380;2022-09-03T07:51:49;94371.84;;;18.63;100.00
6694;BME280;3384;42.628;23.380;2022-09-03T07:54:18;94372.69;;;18.52;100.00
6694;BME280;3384;42.628;23.380;2022-09-03T07:56:47;94391.84;;;18.43;100.00
6694;BME280;3384;42.628;23.380;2022-09-03T07:59:14;94387.13;;;18.56;100.00
6694;BME280;3384;42.628;23.380;2022-09-03T08:01:41;94386.97;;;18.64;100.00
6694;BME280;3384;42.628;23.380;2022-09-03T08:04:08;94377.47;;;18.86;100.00
6694;BME280;3384;42.628;23.380;2022-09-03T08:06:37;94383.94;;;18.81;100.00
6694;BME280;3384;42.628;23.380;2022-09-03T08:09:05;94387.31;;;18.47;100.00
6694;BME280;3384;42.628;23.380;2022-09-03T08:11:35;94400.72;;;18.56;100.00
6694;BME280;3384;42.628;23.380;2022-09-03T08:14:05;94391.09;;;18.58;100.00
6694;BME280;3384;42.628;23.380;2022-09-03T08:16:34;94388.19;;;18.51;100.00
6694;BME280;3384;42.628;23.380;2022-09-03T08:19:02;94387.56;;;18.85;100.00
6694;BME280;3384;42.628;23.380;2022-09-03T08:21:29;94374.66;;;18.67;100.00
6694;BME280;3384;42.628;23.380;2022-09-03T08:23:56;94391.25;;;19.08;100.00
6694;BME280;3384;42.628;23.380;2022-09-03T08:26:28;94386.09;;;18.88;100.00
6694;BME280;3384;42.628;23.380;2022-09-03T08:28:55;94392.41;;;18.64;100.00
6694;BME280;3384;42.628;23.380;2022-09-03T08:31:24;94374.34;;;18.99;100.00
6694;BME280;3384;42.628;23.380;2022-09-03T08:33:53;94389.69;;;18.64;100.00
6694;BME280;3384;42.628;23.380;2022-09-03T08:36:22;94368.19;;;18.87;100.00
6694;BME280;3384;42.628;23.380;2022-09-03T08:38:50;94381.78;;;19.18;100.00
6694;BME280;3384;42.628;23.380;2022-09-03T08:41:23;94387.97;;;19.31;100.00
6694;BME280;3384;42.628;23.380;2022-09-03T08:44:05;94386.19;;;19.23;100.00
6694;BME280;3384;42.628;23.380;2022-09-03T08:46:46;94382.16;;;19.48;100.00
6694;BME280;3384;42.628;23.380;2022-09-03T08:49:20;94376.34;;;19.18;100.00
6694;BME280;3384;42.628;23.380;2022-09-03T08:51:49;94370.72;;;18.95;100.00
6694;BME280;3384;42.628;23.380;2022-09-03T08:54:19;94370.25;;;19.37;100.00
6694;BME280;3384;42.628;23.380;2022-09-03T08:56:47;94384.25;;;19.08;100.00
6694;BME280;3384;42.628;23.380;2022-09-03T08:59:15;94387.19;;;19.30;100.00
6694;BME280;3384;42.628;23.380;2022-09-03T09:01:51;94377.16;;;19.03;100.00
6694;BME280;3384;42.628;23.380;2022-09-03T09:04:31;94379.63;;;19.24;100.00
6694;BME280;3384;42.628;23.380;2022-09-03T09:07:09;94381.44;;;19.51;100.00
6694;BME280;3384;42.628;23.380;2022-09-03T09:09:44;94382.13;;;19.17;100.00
6694;BME280;3384;42.628;23.380;2022-09-03T09:12:21;94381.38;;;19.16;100.00
6694;BME280;3384;42.628;23.380;2022-09-03T09:15:09;94386.69;;;19.59;100.00
6694;BME280;3384;42.628;23.380;2022-09-03T09:18:08;94395.50;;;19.53;100.00
6694;BME280;3384;42.628;23.380;2022-09-03T09:20:43;94381.00;;;19.64;100.00
6694;BME280;3384;42.628;23.380;2022-09-03T09:23:13;94381.63;;;19.58;100.00
6694;BME280;3384;42.628;23.380;2022-09-03T09:25:46;94394.28;;;19.35;100.00
6694;BME280;3384;42.628;23.380;2022-09-03T09:28:17;94388.34;;;19.79;100.00
6694;BME280;3384;42.628;23.380;2022-09-03T09:30:45;94391.41;;;19.78;100.00
6694;BME280;3384;42.628;23.380;2022-09-03T09:33:15;94397.88;;;19.89;100.00
6694;BME280;3384;42.628;23.380;2022-09-03T09:35:44;94390.53;;;19.74;100.00
6694;BME280;3384;42.628;23.380;2022-09-03T09:38:11;94396.22;;;19.84;100.00
6694;BME280;3384;42.628;23.380;2022-09-03T09:40:40;94389.69;;;19.54;100.00
6694;BME280;3384;42.628;23.380;2022-09-03T09:43:10;94400.53;;;19.85;100.00
6694;BME280;3384;42.628;23.380;2022-09-03T09:45:41;94382.03;;;19.75;100.00
6694;BME280;3384;42.628;23.380;2022-09-03T09:48:19;94388.31;;;19.95;100.00
6694;BME280;3384;42.628;23.380;2022-09-03T09:50:47;94379.44;;;19.98;100.00
6694;BME280;3384;42.628;23.380;2022-09-03T09:53:17;94394.13;;;19.78;100.00
6694;BME280;3384;42.628;23.380;2022-09-03T09:55:51;94398.28;;;19.56;100.00
6694;BME280;3384;42.628;23.380;2022-09-03T09:58:22;94402.38;;;19.81;100.00
6694;BME280;3384;42.628;23.380;2022-09-03T10:00:56;94402.16;;;20.05;100.00
6694;BME280;3384;42.628;23.380;2022-09-03T10:03:26;94402.91;;;19.87;100.00
6694;BME280;3384;42.628;23.380;2022-09-03T10:06:02;94401.09;;;19.94;100.00
6694;BME280;3384;42.628;23.380;2022-09-03T10:08:51;94400.59;;;19.89;100.00
6694;BME280;3384;42.628;23.380;2022-09-03T10:11:20;94398.00;;;19.77;100.00
6694;BME280;3384;42.628;23.380;2022-09-03T10:13:51;94399.19;;;19.60;100.00
6694;BME280;3384;42.628;23.380;2022-09-03T10:16:22;94391.88;;;19.99;100.00
6694;BME280;3384;42.628;23.380;2022-09-03T10:18:59;94401.28;;;19.36;100.00
6694;BME280;3384;42.628;23.380;2022-09-03T10:21:31;94382.94;;;19.64;100.00
6694;BME280;3384;42.628;23.380;2022-09-03T10:24:14;94391.38;;;19.93;100.00
6694;BME280;3384;42.628;23.380;2022-09-03T10:26:44;94397.00;;;19.85;100.00
6694;BME280;3384;42.628;23.380;2022-09-03T10:29:17;94390.50;;;19.89;100.00
6694;BME280;3384;42.628;23.380;2022-09-03T10:31:57;94374.13;;;20.05;100.00
6694;BME280;3384;42.628;23.380;2022-09-03T10:34:33;94378.34;;;20.18;100.00
6694;BME280;3384;42.628;23.380;2022-09-03T10:37:16;94375.19;;;20.16;100.00
6694;BME280;3384;42.628;23.380;2022-09-03T10:39:57;94379.69;;;20.27;100.00
6694;BME280;3384;42.628;23.380;2022-09-03T10:42:42;94383.38;;;20.35;100.00
6694;BME280;3384;42.628;23.380;2022-09-03T10:45:18;94384.28;;;20.42;100.00
6694;BME280;3384;42.628;23.380;2022-09-03T10:48:21;94376.16;;;20.65;100.00
6694;BME280;3384;42.628;23.380;2022-09-03T10:50:56;94381.16;;;20.40;100.00
6694;BME280;3384;42.628;23.380;2022-09-03T10:53:38;94403.25;;;20.58;100.00
6694;BME280;3384;42.628;23.380;2022-09-03T10:56:15;94387.34;;;20.41;100.00
6694;BME280;3384;42.628;23.380;2022-09-03T10:58:55;94377.72;;;20.85;100.00
6694;BME280;3384;42.628;23.380;2022-09-03T11:01:34;94376.97;;;20.65;100.00
6694;BME280;3384;42.628;23.380;2022-09-03T11:04:21;94394.47;;;20.64;100.00
6694;BME280;3384;42.628;23.380;2022-09-03T11:06:56;94368.31;;;21.01;100.00
6694;BME280;3384;42.628;23.380;2022-09-03T11:09:30;94380.25;;;21.16;100.00
6694;BME280;3384;42.628;23.380;2022-09-03T11:12:04;94374.19;;;21.03;100.00
6694;BME280;3384;42.628;23.380;2022-09-03T11:14:37;94363.44;;;20.91;100.00
6694;BME280;3384;42.628;23.380;2022-09-03T11:17:09;94366.06;;;21.29;100.00
6694;BME280;3384;42.628;23.380;2022-09-03T11:19:43;94391.81;;;21.54;100.00
6694;BME280;3384;42.628;23.380;2022-09-03T11:22:14;94394.78;;;21.01;100.00
6694;BME280;3384;42.628;23.380;2022-09-03T11:24:45;94386.44;;;21.13;100.00
6694;BME280;3384;42.628;23.380;2022-09-03T11:27:31;94377.22;;;21.21;100.00
6694;BME280;3384;42.628;23.380;2022-09-03T11:30:03;94376.13;;;21.25;100.00
6694;BME280;3384;42.628;23.380;2022-09-03T11:32:41;94373.00;;;21.23;100.00
6694;BME280;3384;42.628;23.380;2022-09-03T11:35:15;94371.03;;;21.46;100.00
6694;BME280;3384;42.628;23.380;2022-09-03T11:37:52;94372.19;;;21.45;100.00
6694;BME280;3384;42.628;23.380;2022-09-03T11:40:28;94371.22;;;21.34;100.00
6694;BME280;3384;42.628;23.380;2022-09-03T11:43:05;94383.06;;;21.42;100.00
6694;BME280;3384;42.628;23.380;2022-09-03T11:45:35;94372.06;;;21.38;100.00
6694;BME280;3384;42.628;23.380;2022-09-03T11:48:17;94382.25;;;21.41;100.00
6694;BME280;3384;42.628;23.380;2022-09-03T11:50:52;94381.28;;;21.08;100.00
6694;BME280;3384;42.628;23.380;2022-09-03T11:53:26;94370.38;;;21.30;100.00
6694;BME280;3384;42.628;23.380;2022-09-03T11:55:59;94381.94;;;21.46;100.00
6694;BME280;3384;42.628;23.380;2022-09-03T11:58:30;94366.53;;;21.35;100.00
6694;BME280;3384;42.628;23.380;2022-09-03T12:00:59;94381.78;;;21.62;100.00
6694;BME280;3384;42.628;23.380;2022-09-03T12:03:33;94376.69;;;21.60;100.00
6694;BME280;3384;42.628;23.380;2022-09-03T12:06:20;94370.03;;;21.58;100.00
6694;BME280;3384;42.628;23.380;2022-09-03T12:09:10;94363.56;;;21.43;100.00
6694;BME280;3384;42.628;23.380;2022-09-03T12:11:46;94368.25;;;21.43;100.00
6694;BME280;3384;42.628;23.380;2022-09-03T12:14:22;94364.84;;;21.72;100.00
6694;BME280;3384;42.628;23.380;2022-09-03T12:17:02;94359.44;;;21.76;100.00
6694;BME280;3384;42.628;23.380;2022-09-03T12:19:37;94360.47;;;21.94;100.00
6694;BME280;3384;42.628;23.380;2022-09-03T12:22:06;94351.41;;;21.86;100.00
6694;BME280;3384;42.628;23.380;2022-09-03T12:24:41;94370.50;;;21.86;100.00
6694;BME280;3384;42.628;23.380;2022-09-03T12:27:09;94344.94;;;21.98;100.00
6694;BME280;3384;42.628;23.380;2022-09-03T12:29:38;94338.28;;;21.95;100.00
6694;BME280;3384;42.628;23.380;2022-09-03T12:32:15;94346.97;;;22.04;100.00
6694;BME280;3384;42.628;23.380;2022-09-03T12:34:42;94336.81;;;22.01;100.00
6694;BME280;3384;42.628;23.380;2022-09-03T12:37:18;94345.59;;;22.17;100.00
6694;BME280;3384;42.628;23.380;2022-09-03T12:39:51;94349.13;;;22.21;100.00
6694;BME280;3384;42.628;23.380;2022-09-03T12:42:22;94353.19;;;22.31;100.00
6694;BME280;3384;42.628;23.380;2022-09-03T12:44:50;94338.38;;;22.35;100.00
6694;BME280;3384;42.628;23.380;2022-09-03T12:47:20;94337.19;;;22.33;100.00
6694;BME280;3384;42.628;23.380;2022-09-03T12:49:49;94340.81;;;22.40;100.00
6694;BME280;3384;42.628;23.380;2022-09-03T12:52:19;94346.28;;;22.44;100.00
6694;BME280;3384;42.628;23.380;2022-09-03T12:54:53;94344.94;;;22.27;100.00
6694;BME280;3384;42.628;23.380;2022-09-03T12:57:27;94328.03;;;22.18;100.00
6694;BME280;3384;42.628;23.380;2022-09-03T12:59:57;94338.66;;;22.27;100.00
6694;BME280;3384;42.628;23.380;2022-09-03T13:02:30;94325.44;;;22.29;100.00
6694;BME280;3384;42.628;23.380;2022-09-03T13:05:02;94334.53;;;22.40;100.00
6694;BME280;3384;42.628;23.380;2022-09-03T13:07:31;94333.44;;;22.44;100.00
6694;BME280;3384;42.628;23.380;2022-09-03T13:10:06;94317.97;;;22.55;100.00
6694;BME280;3384;42.628;23.380;2022-09-03T13:12:40;94321.69;;;22.40;100.00
6694;BME280;3384;42.628;23.380;2022-09-03T13:15:16;94318.78;;;22.56;100.00
6694;BME280;3384;42.628;23.380;2022-09-03T13:18:18;94320.16;;;22.43;100.00
6694;BME280;3384;42.628;23.380;2022-09-03T13:21:06;94309.44;;;22.27;100.00
6694;BME280;3384;42.628;23.380;2022-09-03T13:23:51;94316.91;;;22.34;100.00
6694;BME280;3384;42.628;23.380;2022-09-03T13:26:29;94306.84;;;22.38;100.00